Time;durP1;ratioP1;P1;durP2;ratioP2;P2;SDS_P1;SDS_P2;PMS_P1;PMS_P2;Temp;Humidity;BMP_temperature;BMP_pressure;BME280_temperature;BME280_humidity;BME280_pressure;Samples;Min_cycle;Max_cycle;Signal;HPM_P1;HPM_P2
2022/03/27 00:02:05;;;;;;;3.40;2.40;;;16.00;64.10;;;;;;4996230;28;20057;-79
2022/03/27 00:04:31;;;;;;;3.72;2.78;;;15.90;64.10;;;;;;5019519;28;20458;-78
2022/03/27 00:06:57;;;;;;;4.13;2.33;;;15.90;64.20;;;;;;5009618;28;20026;-76
2022/03/27 00:09:23;;;;;;;3.97;2.60;;;15.80;64.10;;;;;;4995033;28;20120;-78
2022/03/27 00:11:48;;;;;;;3.63;2.50;;;15.80;64.20;;;;;;4992921;28;20119;-76
2022/03/27 00:14:14;;;;;;;4.70;2.80;;;15.80;64.20;;;;;;4997331;28;20041;-77
2022/03/27 00:16:40;;;;;;;3.72;2.60;;;15.70;64.20;;;;;;4997459;28;20045;-78
2022/03/27 00:19:06;;;;;;;3.97;2.80;;;15.70;64.30;;;;;;5016942;28;20038;-76
2022/03/27 00:21:32;;;;;;;4.07;2.88;;;15.70;64.30;;;;;;4997459;28;20030;-76
2022/03/27 00:23:59;;;;;;;4.18;2.70;;;15.60;64.30;;;;;;5014057;28;20042;-77
2022/03/27 00:26:25;;;;;;;3.92;2.70;;;15.60;64.40;;;;;;5015842;28;20056;-78
2022/03/27 00:28:51;;;;;;;3.90;2.70;;;15.60;64.40;;;;;;5022538;28;20058;-77
2022/03/27 00:31:17;;;;;;;3.75;2.83;;;15.50;64.40;;;;;;5000918;28;20140;-77
2022/03/27 00:33:44;;;;;;;4.07;2.88;;;15.50;64.50;;;;;;4997767;28;20036;-78
2022/03/27 00:36:13;;;;;;;3.78;2.67;;;15.50;64.60;;;;;;5031436;28;20080;-78
2022/03/27 00:38:39;;;;;;;3.95;2.78;;;15.40;64.70;;;;;;4997907;28;20056;-78
2022/03/27 00:41:06;;;;;;;3.70;2.80;;;15.40;64.70;;;;;;5013923;28;20026;-78
2022/03/27 00:43:33;;;;;;;4.53;3.13;;;15.40;64.80;;;;;;5022235;28;20048;-78
2022/03/27 00:45:59;;;;;;;3.65;2.55;;;15.40;64.80;;;;;;5013438;28;20211;-79
2022/03/27 00:48:25;;;;;;;3.55;2.53;;;15.30;64.90;;;;;;4977877;28;20041;-77
2022/03/27 00:50:53;;;;;;;3.88;2.65;;;15.30;64.90;;;;;;4997018;28;20033;-79
2022/03/27 00:53:19;;;;;;;3.50;2.35;;;15.30;64.90;;;;;;4997182;28;20042;-77
2022/03/27 00:55:45;;;;;;;3.85;2.85;;;15.30;64.90;;;;;;4997299;28;20366;-78
2022/03/27 00:58:13;;;;;;;3.70;2.50;;;15.20;64.90;;;;;;5030923;28;20053;-79
2022/03/27 01:00:39;;;;;;;3.60;2.70;;;15.20;64.90;;;;;;4996767;28;20026;-79
2022/03/27 01:03:15;;;;;;;4.32;2.63;;;15.10;64.90;;;;;;5012854;28;20393;-78
2022/03/27 01:05:43;;;;;;;4.03;2.92;;;15.10;65.00;;;;;;5010781;28;20092;-79
2022/03/27 01:08:11;;;;;;;4.70;3.00;;;15.10;65.00;;;;;;5013035;28;20018;-78
2022/03/27 01:10:38;;;;;;;4.20;2.75;;;15.10;65.10;;;;;;5024582;28;20032;-79
2022/03/27 01:13:23;;;;;;;3.65;2.65;;;15.10;65.00;;;;;;5013291;28;20025;-78
2022/03/27 01:15:54;;;;;;;3.15;2.58;;;15.00;65.00;;;;;;4989781;28;20053;-77
2022/03/27 01:18:21;;;;;;;3.88;2.83;;;15.00;64.90;;;;;;5006228;28;20102;-78
2022/03/27 01:20:47;;;;;;;4.20;2.95;;;15.00;65.00;;;;;;5003638;28;20040;-78
2022/03/27 01:23:14;;;;;;;3.83;2.83;;;14.90;65.00;;;;;;4979122;28;20029;-78
2022/03/27 01:25:41;;;;;;;4.35;3.00;;;14.90;65.00;;;;;;4975921;28;20029;-77
2022/03/27 01:28:10;;;;;;;4.43;2.83;;;14.90;65.00;;;;;;5011759;28;20040;-77
2022/03/27 01:30:37;;;;;;;3.60;2.72;;;14.90;65.00;;;;;;5012277;28;20022;-78
2022/03/27 01:33:05;;;;;;;4.13;2.92;;;14.90;65.00;;;;;;5001220;28;20065;-78
2022/03/27 01:35:31;;;;;;;3.92;3.13;;;14.90;65.00;;;;;;5034180;28;20124;-78
2022/03/27 01:37:58;;;;;;;4.85;3.30;;;14.80;65.00;;;;;;5010064;28;20124;-78
2022/03/27 01:40:24;;;;;;;3.40;2.58;;;14.80;65.00;;;;;;5029154;28;20071;-79
2022/03/27 01:42:53;;;;;;;4.93;3.17;;;14.80;65.10;;;;;;5004260;28;20041;-79
2022/03/27 01:45:19;;;;;;;4.43;3.20;;;14.80;65.10;;;;;;4983217;28;20048;-79
2022/03/27 01:47:44;;;;;;;4.13;3.13;;;14.80;65.10;;;;;;5019540;28;20029;-79
2022/03/27 01:50:11;;;;;;;4.55;3.22;;;14.70;65.10;;;;;;5013634;28;20029;-78
2022/03/27 01:52:37;;;;;;;4.82;3.28;;;14.70;65.10;;;;;;4993302;28;20072;-79
2022/03/27 01:55:06;;;;;;;4.20;3.03;;;14.70;65.10;;;;;;4999683;28;20070;-78
2022/03/27 01:57:32;;;;;;;4.78;3.38;;;14.70;65.20;;;;;;4989980;28;20139;-78
2022/03/27 01:59:58;;;;;;;4.88;3.42;;;14.70;65.20;;;;;;5004585;28;20167;-78
2022/03/27 02:02:24;;;;;;;4.97;3.78;;;14.60;65.10;;;;;;4995931;28;20040;-78
2022/03/27 02:04:53;;;;;;;5.10;3.63;;;14.60;65.10;;;;;;5010609;28;20029;-80
2022/03/27 02:07:22;;;;;;;4.93;3.50;;;14.60;65.20;;;;;;5004857;28;20037;-79
2022/03/27 02:09:49;;;;;;;5.00;3.67;;;14.60;65.30;;;;;;5010369;28;20055;-78
2022/03/27 02:12:15;;;;;;;5.20;3.63;;;14.60;65.90;;;;;;4998621;28;20032;-77
2022/03/27 02:14:40;;;;;;;4.63;3.35;;;14.60;65.30;;;;;;5014639;28;20030;-78
2022/03/27 02:17:08;;;;;;;5.25;3.70;;;14.60;65.30;;;;;;5014401;28;20501;-78
2022/03/27 02:19:35;;;;;;;4.75;3.45;;;14.50;65.30;;;;;;5011379;28;20103;-79
2022/03/27 02:22:02;;;;;;;5.22;4.05;;;14.50;65.30;;;;;;4996832;28;20034;-78
2022/03/27 02:24:28;;;;;;;5.63;3.80;;;14.50;65.30;;;;;;5010343;28;20033;-78
2022/03/27 02:26:54;;;;;;;5.28;3.75;;;14.50;65.30;;;;;;5003969;28;20022;-78
2022/03/27 02:29:20;;;;;;;5.10;3.58;;;14.50;65.30;;;;;;5014281;28;20029;-78
2022/03/27 02:31:47;;;;;;;5.00;3.67;;;14.40;65.30;;;;;;5013034;28;20085;-78
2022/03/27 02:34:14;;;;;;;4.53;3.38;;;14.40;66.00;;;;;;4998390;28;20572;-76
2022/03/27 02:36:40;;;;;;;5.03;3.22;;;14.40;65.40;;;;;;5024083;28;20025;-76
2022/03/27 02:39:07;;;;;;;5.07;3.53;;;14.40;65.40;;;;;;5011553;28;20037;-76
2022/03/27 02:41:33;;;;;;;5.93;3.83;;;14.40;65.40;;;;;;5030639;28;20030;-76
2022/03/27 02:43:58;;;;;;;4.75;3.42;;;14.40;65.50;;;;;;4983936;28;20535;-76
2022/03/27 02:46:24;;;;;;;4.70;3.45;;;14.40;65.50;;;;;;5031537;28;20030;-76
2022/03/27 02:48:50;;;;;;;4.68;3.58;;;14.40;65.50;;;;;;4999016;28;20042;-76
2022/03/27 02:51:16;;;;;;;4.68;3.58;;;14.30;65.50;;;;;;5019188;28;20034;-77
2022/03/27 02:53:42;;;;;;;4.85;3.70;;;14.30;65.50;;;;;;5001441;28;20099;-77
2022/03/27 02:56:09;;;;;;;4.97;3.50;;;14.30;65.50;;;;;;5016662;28;20532;-78
2022/03/27 02:58:35;;;;;;;4.72;3.58;;;14.30;65.60;;;;;;5008811;28;20042;-78
2022/03/27 03:01:02;;;;;;;5.30;3.75;;;14.20;65.50;;;;;;4995934;28;20189;-78
2022/03/27 03:03:28;;;;;;;4.88;3.50;;;14.20;65.50;;;;;;5011939;28;21186;-77
2022/03/27 03:05:54;;;;;;;4.55;3.30;;;14.20;65.60;;;;;;5016692;28;20029;-78
2022/03/27 03:08:20;;;;;;;5.45;3.70;;;14.20;65.60;;;;;;4991768;28;20045;-79
2022/03/27 03:10:46;;;;;;;4.63;3.50;;;14.20;65.60;;;;;;4997858;28;20065;-78
2022/03/27 03:13:12;;;;;;;4.55;3.22;;;14.20;65.60;;;;;;5017467;28;20120;-78
2022/03/27 03:15:41;;;;;;;5.30;3.45;;;14.20;65.60;;;;;;4998136;28;20431;-78
2022/03/27 03:18:11;;;;;;;5.38;3.92;;;14.20;65.70;;;;;;5035978;28;20084;-78
2022/03/27 03:20:38;;;;;;;4.97;3.60;;;14.10;65.60;;;;;;5003699;28;20034;-79
2022/03/27 03:23:04;;;;;;;4.28;3.20;;;14.10;65.60;;;;;;4998316;28;20017;-78
2022/03/27 03:25:31;;;;;;;5.00;3.70;;;14.10;65.70;;;;;;4982039;28;20113;-78
2022/03/27 03:27:57;;;;;;;5.30;3.92;;;14.10;65.70;;;;;;4999996;28;20083;-78
2022/03/27 03:30:23;;;;;;;4.85;3.55;;;14.10;65.70;;;;;;4982038;28;20040;-78
2022/03/27 03:32:49;;;;;;;5.03;3.90;;;14.10;65.80;;;;;;5017018;28;20032;-78
2022/03/27 03:35:15;;;;;;;5.20;3.70;;;14.00;65.70;;;;;;5021260;28;20040;-77
2022/03/27 03:37:41;;;;;;;5.20;3.70;;;14.00;65.70;;;;;;5012173;28;20329;-78
2022/03/27 03:40:07;;;;;;;5.10;3.67;;;14.00;65.70;;;;;;4997721;28;20104;-78
2022/03/27 03:42:34;;;;;;;5.22;3.67;;;14.00;65.80;;;;;;4995060;28;20535;-78
2022/03/27 03:45:00;;;;;;;5.20;3.78;;;14.00;65.80;;;;;;4995269;28;20060;-78
2022/03/27 03:47:25;;;;;;;5.20;3.88;;;14.00;65.80;;;;;;4982727;28;20033;-78
2022/03/27 03:49:51;;;;;;;7.60;4.40;;;14.00;65.80;;;;;;5014781;28;20049;-77
2022/03/27 03:52:17;;;;;;;5.97;3.92;;;13.90;65.80;;;;;;4997544;28;20037;-78
2022/03/27 03:54:42;;;;;;;6.30;4.45;;;13.90;65.80;;;;;;5001640;28;20044;-78
2022/03/27 03:57:08;;;;;;;4.55;3.40;;;13.90;65.80;;;;;;4998180;28;20045;-77
2022/03/27 03:59:36;;;;;;;6.30;4.00;;;13.90;65.80;;;;;;5003936;28;20034;-77
2022/03/27 04:02:05;;;;;;;6.72;4.03;;;13.90;65.80;;;;;;5005341;28;20030;-78
2022/03/27 04:04:32;;;;;;;6.05;4.32;;;13.90;65.90;;;;;;5015629;28;20038;-79
2022/03/27 04:06:59;;;;;;;7.00;4.93;;;13.80;65.80;;;;;;5030096;28;20029;-78
2022/03/27 04:09:25;;;;;;;6.03;4.00;;;13.80;65.90;;;;;;5013835;28;20030;-77
2022/03/27 04:11:51;;;;;;;6.38;4.32;;;13.80;65.90;;;;;;4996438;28;20125;-77
2022/03/27 04:14:17;;;;;;;6.50;4.45;;;13.80;65.90;;;;;;4997937;28;20140;-78
2022/03/27 04:16:43;;;;;;;6.72;4.45;;;13.80;65.90;;;;;;4981843;28;20660;-78
2022/03/27 04:19:09;;;;;;;7.75;5.07;;;13.80;65.90;;;;;;5000678;28;20025;-78
2022/03/27 04:21:34;;;;;;;7.75;5.30;;;13.70;65.90;;;;;;5003865;28;20025;-77
2022/03/27 04:24:00;;;;;;;7.07;4.57;;;13.70;65.90;;;;;;5014003;28;20037;-77
2022/03/27 04:26:26;;;;;;;6.50;4.22;;;13.70;65.90;;;;;;5002943;28;20029;-78
2022/03/27 04:28:52;;;;;;;7.55;5.07;;;13.70;65.90;;;;;;5001525;28;20457;-77
2022/03/27 04:31:18;;;;;;;6.75;4.45;;;13.70;65.90;;;;;;4996382;28;20037;-77
2022/03/27 04:33:44;;;;;;;7.45;4.78;;;13.70;66.00;;;;;;4998711;28;20186;-77
2022/03/27 04:36:10;;;;;;;7.20;4.90;;;13.60;65.90;;;;;;5020956;28;20105;-78
2022/03/27 04:38:36;;;;;;;7.70;5.22;;;13.60;65.90;;;;;;5004790;28;20821;-78
2022/03/27 04:41:03;;;;;;;6.78;4.88;;;13.60;66.00;;;;;;5007373;28;20103;-79
2022/03/27 04:43:29;;;;;;;7.93;5.07;;;13.60;66.00;;;;;;5024911;28;20079;-78
2022/03/27 04:45:55;;;;;;;7.60;4.78;;;13.60;66.00;;;;;;5028274;28;20057;-79
2022/03/27 04:48:20;;;;;;;8.75;5.55;;;13.60;66.00;;;;;;4996063;28;20427;-78
2022/03/27 04:50:47;;;;;;;7.80;5.22;;;13.60;66.00;;;;;;4995372;28;20124;-78
2022/03/27 04:53:12;;;;;;;7.07;4.35;;;13.50;66.00;;;;;;4995224;28;20811;-78
2022/03/27 04:55:38;;;;;;;7.57;4.60;;;13.50;66.00;;;;;;4991993;28;20036;-79
2022/03/27 04:58:07;;;;;;;7.32;4.55;;;13.50;66.00;;;;;;4994938;28;20089;-79
2022/03/27 05:00:33;;;;;;;7.35;4.88;;;13.50;66.00;;;;;;5016032;28;20464;-79
2022/03/27 05:02:59;;;;;;;7.40;4.95;;;13.50;66.00;;;;;;4996686;28;20109;-79
2022/03/27 05:05:25;;;;;;;6.93;4.47;;;13.50;66.00;;;;;;5004753;28;20156;-79
2022/03/27 05:07:50;;;;;;;6.82;4.78;;;13.40;66.00;;;;;;5007651;28;20042;-77
2022/03/27 05:10:16;;;;;;;6.70;4.60;;;13.40;66.00;;;;;;5037177;28;20402;-77
2022/03/27 05:12:42;;;;;;;7.68;5.00;;;13.40;66.00;;;;;;5023105;28;20079;-76
2022/03/27 05:15:09;;;;;;;7.72;4.78;;;13.40;66.00;;;;;;5014187;28;20033;-78
2022/03/27 05:17:49;;;;;;;6.68;4.75;;;13.40;66.00;;;;;;5011554;28;20103;-78
2022/03/27 05:20:15;;;;;;;6.72;4.70;;;13.30;66.10;;;;;;5009511;28;20033;-77
2022/03/27 05:22:42;;;;;;;7.63;5.00;;;13.30;66.00;;;;;;4995464;28;20692;-77
2022/03/27 05:25:09;;;;;;;8.02;5.50;;;13.30;66.00;;;;;;5019244;28;20072;-79
2022/03/27 05:27:42;;;;;;;8.75;5.03;;;13.30;66.00;;;;;;5012591;28;20036;-76
2022/03/27 05:30:08;;;;;;;7.35;4.82;;;13.30;66.00;;;;;;5003215;28;20026;-79
2022/03/27 05:32:34;;;;;;;7.25;4.72;;;13.30;66.00;;;;;;5002566;28;20029;-77
2022/03/27 05:34:59;;;;;;;7.60;4.97;;;13.20;66.00;;;;;;5010951;28;20528;-79
2022/03/27 05:37:25;;;;;;;6.47;4.18;;;13.20;66.00;;;;;;5015888;28;20558;-79
2022/03/27 05:39:51;;;;;;;6.90;4.55;;;13.20;66.00;;;;;;5025873;28;20033;-78
2022/03/27 05:42:17;;;;;;;7.47;4.72;;;13.10;65.90;;;;;;5005011;28;20120;-78
2022/03/27 05:44:42;;;;;;;7.07;4.80;;;13.10;65.90;;;;;;5009281;28;20535;-78
2022/03/27 05:47:08;;;;;;;6.80;4.55;;;13.10;65.90;;;;;;5008015;28;20075;-78
2022/03/27 05:49:34;;;;;;;7.05;4.60;;;13.10;66.00;;;;;;4999371;28;20026;-78
2022/03/27 05:51:59;;;;;;;7.07;4.50;;;13.10;66.00;;;;;;5001427;28;20076;-78
2022/03/27 05:54:26;;;;;;;6.57;4.25;;;13.00;65.90;;;;;;5035064;28;20144;-78
2022/03/27 05:56:52;;;;;;;6.90;4.72;;;13.00;66.00;;;;;;5000159;28;20498;-79
2022/03/27 05:59:18;;;;;;;6.78;4.20;;;13.00;66.00;;;;;;5028519;28;20025;-78
2022/03/27 06:01:44;;;;;;;6.45;4.47;;;13.00;66.00;;;;;;4996087;28;20055;-78
2022/03/27 06:04:10;;;;;;;6.03;3.83;;;12.90;65.90;;;;;;4994094;28;20030;-78
2022/03/27 06:06:35;;;;;;;6.13;4.10;;;12.90;65.90;;;;;;4995475;28;20541;-78
2022/03/27 06:09:01;;;;;;;7.32;4.60;;;12.90;65.90;;;;;;4995647;28;20021;-79
2022/03/27 06:11:28;;;;;;;6.55;4.43;;;12.90;66.00;;;;;;5005094;28;20033;-76
2022/03/27 06:13:54;;;;;;;7.13;4.82;;;12.80;65.90;;;;;;4985430;28;20037;-78
2022/03/27 06:16:20;;;;;;;6.57;4.25;;;12.80;66.00;;;;;;5021207;28;20041;-77
2022/03/27 06:18:47;;;;;;;6.78;4.63;;;12.80;65.90;;;;;;4997510;28;21135;-80
2022/03/27 06:21:13;;;;;;;6.30;4.20;;;12.80;66.00;;;;;;5003157;28;20537;-81
2022/03/27 06:23:39;;;;;;;6.90;4.28;;;12.80;66.00;;;;;;4997832;28;20038;-78
2022/03/27 06:26:06;;;;;;;6.60;4.55;;;12.70;66.00;;;;;;5009543;28;20152;-77
2022/03/27 06:28:32;;;;;;;6.43;4.32;;;12.70;66.00;;;;;;4995033;28;20470;-78
2022/03/27 06:30:58;;;;;;;7.10;4.45;;;12.70;66.00;;;;;;5012527;28;20017;-79
2022/03/27 06:33:23;;;;;;;7.38;5.03;;;12.70;66.00;;;;;;5027882;28;20540;-78
2022/03/27 06:35:49;;;;;;;6.82;4.70;;;12.60;66.00;;;;;;4977445;28;20065;-78
2022/03/27 06:38:15;;;;;;;6.18;4.25;;;12.60;66.00;;;;;;5012253;28;20057;-79
2022/03/27 06:40:41;;;;;;;7.35;4.55;;;12.60;66.00;;;;;;5009013;28;20026;-80
2022/03/27 06:43:07;;;;;;;7.05;4.63;;;12.60;66.10;;;;;;4995475;28;20037;-80
2022/03/27 06:45:33;;;;;;;6.55;4.60;;;12.50;66.00;;;;;;4996351;28;20112;-76
2022/03/27 06:47:59;;;;;;;7.00;4.80;;;12.50;66.10;;;;;;5011454;28;20025;-78
2022/03/27 06:50:25;;;;;;;6.82;4.30;;;12.50;66.10;;;;;;4978602;28;20053;-77
2022/03/27 06:52:52;;;;;;;6.50;4.30;;;12.50;66.10;;;;;;5016515;28;20026;-77
2022/03/27 06:55:20;;;;;;;7.32;4.55;;;12.50;66.20;;;;;;4996027;28;20045;-77
2022/03/27 06:57:46;;;;;;;6.60;4.47;;;12.40;66.10;;;;;;4997575;28;20033;-77
2022/03/27 07:03:09;;;;;;;6.57;4.35;;;12.40;66.20;;;;;;5013747;28;20057;-78
2022/03/27 07:05:41;;;;;;;6.63;4.78;;;12.40;66.20;;;;;;5014480;28;20112;-76
2022/03/27 07:08:09;;;;;;;6.47;4.43;;;12.40;66.30;;;;;;5012414;28;20029;-78
2022/03/27 07:10:37;;;;;;;7.35;4.85;;;12.40;66.30;;;;;;5028460;28;20056;-78
2022/03/27 07:13:04;;;;;;;7.20;5.10;;;12.40;66.30;;;;;;4995103;28;20053;-76
2022/03/27 07:15:30;;;;;;;7.10;4.40;;;12.30;66.20;;;;;;5013115;28;20045;-79
2022/03/27 07:17:56;;;;;;;7.10;4.40;;;12.30;66.20;;;;;;5003891;28;20034;-78
2022/03/27 07:20:30;;;;;;;6.82;4.50;;;12.30;66.30;;;;;;5014532;28;20045;-77
2022/03/27 07:22:58;;;;;;;7.03;4.23;;;12.30;66.40;;;;;;5011804;28;20029;-77
2022/03/27 07:25:26;;;;;;;9.60;4.75;;;12.30;66.30;;;;;;5000213;28;20288;-77
2022/03/27 07:27:52;;;;;;;7.47;4.70;;;12.30;66.30;;;;;;5003514;28;20032;-77
2022/03/27 07:30:18;;;;;;;7.28;4.80;;;12.30;66.30;;;;;;5014398;28;20034;-77
2022/03/27 07:32:44;;;;;;;7.72;4.50;;;12.30;66.30;;;;;;5018962;28;20027;-79
2022/03/27 07:35:14;;;;;;;6.70;4.28;;;12.20;66.30;;;;;;5019836;28;20034;-78
2022/03/27 07:37:41;;;;;;;6.88;4.78;;;12.30;66.40;;;;;;5010959;28;20041;-77
2022/03/27 07:40:09;;;;;;;7.18;4.80;;;12.20;66.30;;;;;;5039126;28;20036;-79
2022/03/27 07:42:36;;;;;;;7.60;5.13;;;12.30;67.00;;;;;;4998263;28;20029;-77
2022/03/27 07:45:04;;;;;;;7.93;5.00;;;12.20;66.30;;;;;;5011618;28;20037;-79
2022/03/27 07:47:30;;;;;;;7.10;4.95;;;12.20;66.40;;;;;;4980778;28;20059;-78
2022/03/27 07:49:57;;;;;;;7.78;4.82;;;12.20;66.40;;;;;;5012719;28;20462;-79
2022/03/27 07:52:23;;;;;;;7.75;5.00;;;12.20;66.40;;;;;;4994088;28;20390;-80
2022/03/27 07:54:53;;;;;;;6.70;4.60;;;12.20;66.40;;;;;;5014140;28;20052;-77
2022/03/27 07:57:20;;;;;;;8.52;5.30;;;12.20;66.40;;;;;;5012834;28;20075;-78
2022/03/27 07:59:47;;;;;;;6.85;4.47;;;12.20;66.40;;;;;;4981428;28;20040;-77
2022/03/27 08:02:16;;;;;;;7.93;4.70;;;12.20;66.50;;;;;;4996963;28;20045;-77
2022/03/27 08:04:42;;;;;;;8.27;5.45;;;12.20;66.40;;;;;;5015122;28;20037;-78
2022/03/27 08:07:08;;;;;;;7.53;4.80;;;12.10;66.40;;;;;;4997308;28;20036;-76
2022/03/27 08:09:33;;;;;;;7.78;4.88;;;12.20;66.50;;;;;;4977826;28;20029;-76
2022/03/27 08:11:59;;;;;;;7.18;4.82;;;12.10;66.40;;;;;;5009959;28;20430;-75
2022/03/27 08:14:28;;;;;;;7.60;4.97;;;12.10;66.40;;;;;;4993012;28;20049;-75
2022/03/27 08:16:55;;;;;;;7.43;4.97;;;12.10;66.40;;;;;;5009574;28;20479;-76
2022/03/27 08:19:21;;;;;;;7.60;4.88;;;12.10;66.50;;;;;;5015070;28;20034;-74
2022/03/27 08:21:47;;;;;;;7.32;4.90;;;12.10;66.50;;;;;;5004325;28;20030;-77
2022/03/27 08:24:13;;;;;;;7.47;4.65;;;12.10;66.50;;;;;;5014038;28;20038;-76
2022/03/27 08:26:59;;;;;;;7.22;4.75;;;12.10;66.50;;;;;;5011216;28;20022;-78
2022/03/27 08:29:29;;;;;;;7.53;4.78;;;12.10;66.50;;;;;;5013413;28;20037;-78
2022/03/27 08:31:59;;;;;;;6.97;4.78;;;12.10;66.50;;;;;;4997968;28;20025;-77
2022/03/27 08:34:25;;;;;;;7.30;4.90;;;12.00;66.50;;;;;;5013476;28;20025;-77
2022/03/27 08:36:51;;;;;;;7.40;4.90;;;12.10;66.60;;;;;;4998531;28;20434;-77
2022/03/27 08:39:18;;;;;;;7.95;5.22;;;12.00;66.50;;;;;;4999222;28;20061;-78
2022/03/27 08:41:45;;;;;;;7.43;5.00;;;12.00;66.60;;;;;;5016429;28;20128;-77
2022/03/27 08:44:14;;;;;;;7.97;5.20;;;12.10;66.70;;;;;;5015376;28;20025;-77
2022/03/27 08:46:42;;;;;;;7.72;4.82;;;12.00;66.60;;;;;;5018744;28;20128;-78
2022/03/27 08:49:27;;;;;;;8.57;5.38;;;12.00;66.60;;;;;;5030949;28;20017;-77
2022/03/27 08:52:17;;;;;;;7.05;4.55;;;12.10;66.80;;;;;;5000741;28;20017;-77
2022/03/27 08:55:06;;;;;;;7.88;4.90;;;12.10;66.80;;;;;;4994115;28;20046;-78
2022/03/27 08:57:50;;;;;;;6.97;4.70;;;12.10;66.90;;;;;;4983468;28;20538;-77
2022/03/27 09:00:20;;;;;;;6.50;4.40;;;12.10;66.80;;;;;;4987744;28;20030;-77
2022/03/27 09:02:46;;;;;;;7.47;4.95;;;12.10;66.90;;;;;;4985911;28;20027;-77
2022/03/27 09:05:15;;;;;;;8.52;5.45;;;12.10;66.90;;;;;;4986149;28;20098;-78
2022/03/27 09:07:41;;;;;;;7.82;4.90;;;12.10;67.00;;;;;;4972780;28;20076;-78
2022/03/27 09:10:11;;;;;;;8.05;5.47;;;12.10;67.00;;;;;;4992083;28;20031;-76
2022/03/27 09:12:37;;;;;;;7.50;5.00;;;12.20;67.00;;;;;;4972827;28;20042;-77
2022/03/27 09:15:07;;;;;;;9.00;5.75;;;12.30;67.00;;;;;;4988737;28;20388;-77
2022/03/27 09:17:53;;;;;;;7.00;4.50;;;12.30;67.00;;;;;;4973568;28;20037;-77
2022/03/27 09:20:32;;;;;;;7.40;4.75;;;12.30;67.00;;;;;;4989061;28;20030;-77
2022/03/27 09:23:21;;;;;;;6.70;4.72;;;12.40;67.10;;;;;;4984147;28;20145;-76
2022/03/27 09:25:54;;;;;;;7.35;4.88;;;12.40;67.00;;;;;;4985646;28;20038;-78
2022/03/27 09:28:29;;;;;;;7.15;4.65;;;12.50;67.00;;;;;;4989069;28;20070;-77
2022/03/27 09:30:56;;;;;;;8.45;5.45;;;12.50;67.00;;;;;;4988337;28;20037;-77
2022/03/27 09:33:53;;;;;;;8.00;5.22;;;12.60;66.90;;;;;;4989351;28;20497;-77
2022/03/27 09:36:20;;;;;;;7.15;4.78;;;12.60;67.00;;;;;;4971365;28;20046;-78
2022/03/27 09:39:16;;;;;;;8.93;5.68;;;12.70;66.90;;;;;;4982997;28;20072;-77
2022/03/27 09:41:53;;;;;;;7.13;4.97;;;12.80;67.10;;;;;;4987969;28;20069;-78
2022/03/27 09:44:29;;;;;;;7.45;4.80;;;12.90;66.90;;;;;;4986089;28;20479;-77
2022/03/27 09:47:02;;;;;;;7.68;5.05;;;12.90;66.80;;;;;;4994211;28;20034;-77
2022/03/27 09:49:31;;;;;;;7.43;4.75;;;13.00;66.90;;;;;;4967259;28;20033;-77
2022/03/27 09:52:13;;;;;;;7.53;5.00;;;13.10;66.80;;;;;;4991334;28;20403;-76
2022/03/27 09:54:58;;;;;;;8.00;5.03;;;13.10;66.80;;;;;;4997171;28;20053;-77
2022/03/27 09:57:57;;;;;;;7.68;4.97;;;13.20;66.70;;;;;;5008167;28;20488;-77
2022/03/27 10:00:23;;;;;;;8.65;5.30;;;13.30;66.70;;;;;;4990976;28;20038;-78
2022/03/27 10:02:51;;;;;;;7.70;5.15;;;13.40;66.50;;;;;;5009766;28;20013;-77
2022/03/27 10:05:22;;;;;;;8.30;5.18;;;13.40;66.50;;;;;;5008871;28;20558;-79
2022/03/27 10:07:52;;;;;;;8.75;5.28;;;13.50;66.50;;;;;;5008330;28;20037;-78
2022/03/27 10:10:20;;;;;;;6.47;4.75;;;13.60;66.40;;;;;;5010498;28;20579;-77
2022/03/27 10:12:48;;;;;;;7.20;4.65;;;13.70;66.30;;;;;;5009819;28;20038;-76
2022/03/27 10:15:22;;;;;;;8.13;5.82;;;13.70;66.30;;;;;;4992282;28;20053;-77
2022/03/27 10:18:00;;;;;;;7.88;5.22;;;13.80;66.20;;;;;;5008741;28;20079;-76
2022/03/27 10:20:32;;;;;;;7.43;4.70;;;13.90;66.20;;;;;;5009376;28;20101;-76
2022/03/27 10:23:07;;;;;;;7.65;4.68;;;14.00;66.10;;;;;;5008901;28;20374;-81
2022/03/27 10:25:39;;;;;;;7.18;4.93;;;14.10;66.10;;;;;;5009336;28;20107;-79
2022/03/27 10:28:07;;;;;;;6.90;4.75;;;14.20;66.00;;;;;;4991991;28;20022;-81
2022/03/27 10:30:33;;;;;;;8.30;5.50;;;14.30;65.90;;;;;;5011078;28;20026;-81
2022/03/27 10:33:01;;;;;;;7.80;5.47;;;14.40;66.00;;;;;;5008028;28;20163;-81
2022/03/27 10:35:45;;;;;;;7.88;5.38;;;14.40;65.90;;;;;;4996530;28;20046;-90
2022/03/27 10:38:17;;;;;;;7.88;5.40;;;14.50;65.80;;;;;;5003588;28;20034;-91
2022/03/27 10:41:04;;;;;;;8.07;5.50;;;14.60;65.20;;;;;;5006843;28;20017;-88
2022/03/27 10:44:04;;;;;;;7.40;4.85;;;14.60;64.70;;;;;;5010736;28;20092;-85
2022/03/27 10:46:30;;;;;;;8.63;5.63;;;14.70;64.30;;;;;;4990253;28;20742;-83
2022/03/27 10:49:16;;;;;;;8.35;5.65;;;14.80;63.90;;;;;;4974410;28;20626;-80
2022/03/27 10:51:47;;;;;;;8.48;5.63;;;14.90;63.60;;;;;;5008405;28;20061;-84
2022/03/27 10:54:18;;;;;;;8.88;5.05;;;14.90;63.10;;;;;;4996142;28;20049;-83
2022/03/27 10:56:52;;;;;;;8.48;5.85;;;15.00;62.90;;;;;;4994421;28;20145;-85
2022/03/27 10:59:26;;;;;;;8.93;6.13;;;15.00;62.60;;;;;;4979188;28;20471;-84
2022/03/27 11:01:59;;;;;;;8.20;5.38;;;15.10;62.30;;;;;;4978368;28;20042;-84
2022/03/27 11:04:34;;;;;;;9.07;5.32;;;15.20;62.10;;;;;;4973344;28;20030;-83
2022/03/27 11:07:20;;;;;;;8.57;5.82;;;15.30;62.00;;;;;;4973486;28;20129;-83
2022/03/27 11:09:46;;;;;;;9.27;5.57;;;15.40;61.80;;;;;;4988130;28;20034;-86
2022/03/27 11:12:24;;;;;;;7.63;5.25;;;15.40;61.50;;;;;;4972652;28;20521;-85
2022/03/27 11:14:53;;;;;;;7.43;5.15;;;15.40;61.30;;;;;;4988851;28;20121;-83
2022/03/27 11:17:37;;;;;;;8.38;5.53;;;15.50;61.00;;;;;;4990111;28;20057;-86
2022/03/27 11:20:07;;;;;;;8.43;5.53;;;15.60;60.80;;;;;;4988694;28;20034;-82
2022/03/27 11:22:44;;;;;;;7.82;5.10;;;15.70;60.70;;;;;;4971966;28;20066;-83
2022/03/27 11:25:33;;;;;;;8.73;5.28;;;15.70;60.40;;;;;;4973447;28;20740;-83
2022/03/27 11:28:06;;;;;;;6.95;4.60;;;15.80;60.40;;;;;;4988953;28;20755;-85
2022/03/27 11:30:34;;;;;;;6.50;4.45;;;15.90;60.00;;;;;;4990153;28;20188;-85
2022/03/27 11:33:21;;;;;;;6.97;4.60;;;15.90;59.80;;;;;;4972591;28;20030;-84
2022/03/27 11:36:04;;;;;;;7.20;4.63;;;16.00;59.90;;;;;;4986776;28;20118;-85
2022/03/27 11:38:51;;;;;;;6.60;4.43;;;16.00;59.50;;;;;;4988357;28;20038;-84
2022/03/27 11:41:45;;;;;;;8.27;4.88;;;16.10;59.40;;;;;;4989377;28;20034;-84
2022/03/27 11:44:22;;;;;;;8.32;5.30;;;16.10;59.20;;;;;;4971066;28;20596;-84
2022/03/27 11:46:54;;;;;;;7.55;4.55;;;16.10;59.00;;;;;;4972334;28;20023;-85
2022/03/27 11:49:35;;;;;;;8.30;4.78;;;16.20;58.80;;;;;;5004994;28;20034;-85
2022/03/27 11:52:10;;;;;;;6.63;4.35;;;16.30;58.80;;;;;;4973030;28;20380;-85
2022/03/27 11:54:36;;;;;;;6.97;4.30;;;16.30;58.50;;;;;;4969685;28;20119;-84
2022/03/27 11:57:03;;;;;;;7.57;4.70;;;16.30;58.40;;;;;;4968805;28;20374;-80
2022/03/27 11:59:29;;;;;;;8.57;4.47;;;16.40;58.20;;;;;;5004184;28;20383;-80
2022/03/27 12:01:57;;;;;;;6.95;4.32;;;16.50;58.30;;;;;;4990570;28;20054;-79
2022/03/27 12:04:25;;;;;;;6.82;4.47;;;16.50;58.20;;;;;;4990538;28;20129;-79
2022/03/27 12:06:58;;;;;;;7.28;4.45;;;16.60;58.00;;;;;;4991454;28;20014;-85
2022/03/27 12:09:26;;;;;;;7.40;4.60;;;16.50;57.80;;;;;;4957644;28;20064;-81
2022/03/27 12:12:14;;;;;;;6.18;4.22;;;16.60;57.60;;;;;;4992300;28;20038;-84
2022/03/27 12:14:51;;;;;;;5.95;3.60;;;16.60;57.40;;;;;;4968715;28;20137;-84
2022/03/27 12:17:18;;;;;;;5.85;3.78;;;16.70;57.40;;;;;;4988208;28;20022;-82
2022/03/27 12:20:10;;;;;;;6.28;3.92;;;16.70;57.40;;;;;;4975736;28;20125;-78
2022/03/27 12:22:42;;;;;;;5.82;3.55;;;16.80;57.20;;;;;;4992217;28;20114;-81
2022/03/27 12:25:20;;;;;;;6.68;4.35;;;16.80;57.60;;;;;;4991813;28;20030;-81
2022/03/27 12:30:47;;;;;;;6.63;4.13;;;16.80;56.90;;;;;;4990378;28;20034;-87
2022/03/27 12:33:13;;;;;;;6.20;3.83;;;16.90;56.90;;;;;;4975993;28;20105;-84
2022/03/27 12:35:39;;;;;;;6.68;3.75;;;16.90;56.90;;;;;;4977821;28;20129;-83
2022/03/27 12:38:05;;;;;;;6.82;3.90;;;16.90;56.80;;;;;;4976295;28;20371;-86
2022/03/27 12:40:45;;;;;;;6.32;3.70;;;16.90;56.70;;;;;;4979840;28;20022;-85
2022/03/27 12:43:13;;;;;;;6.40;3.60;;;17.00;56.60;;;;;;4992376;28;20391;-81
2022/03/27 12:45:41;;;;;;;5.72;3.63;;;17.00;56.60;;;;;;4975416;28;20422;-81
2022/03/27 12:48:27;;;;;;;9.05;3.92;;;17.10;56.60;;;;;;4974733;28;20026;-82
2022/03/27 12:50:56;;;;;;;7.82;3.70;;;17.10;56.50;;;;;;4982825;28;20098;-85
2022/03/27 12:53:21;;;;;;;5.88;3.42;;;17.10;56.40;;;;;;4979314;28;20117;-84
2022/03/27 12:55:55;;;;;;;4.88;3.25;;;17.20;56.50;;;;;;5014004;28;20407;-85
2022/03/27 12:58:20;;;;;;;5.80;3.72;;;17.20;56.40;;;;;;5012008;28;20040;-86
2022/03/27 13:01:16;;;;;;;6.05;3.30;;;17.20;56.20;;;;;;5015478;28;20021;-83
2022/03/27 13:04:02;;;;;;;5.78;3.25;;;17.30;56.10;;;;;;5003100;28;20368;-79
2022/03/27 13:06:33;;;;;;;5.60;3.38;;;17.30;56.00;;;;;;5021416;28;20036;-80